Time;durP1;ratioP1;P1;durP2;ratioP2;P2;SDS_P1;SDS_P2;PMS_P1;PMS_P2;Temp;Humidity;BMP_temperature;BMP_pressure;BME280_temperature;BME280_humidity;BME280_pressure;Samples;Min_cycle;Max_cycle;Signal;HPM_P1;HPM_P2
2023/03/08 00:01:49;;;;;;;16.60;10.50;;;3.70;99.90;;;2.55;100.00;95983.59;4915671;29;20458;-76
2023/03/08 00:04:15;;;;;;;18.43;11.73;;;3.70;99.90;;;2.65;100.00;95986.38;4915791;29;20765;-76
2023/03/08 00:06:41;;;;;;;19.17;11.90;;;3.80;99.90;;;2.67;100.00;95984.34;4915924;29;20934;-77
2023/03/08 00:09:08;;;;;;;18.30;11.70;;;3.90;99.90;;;2.71;100.00;95986.22;4915850;29;20441;-76
2023/03/08 00:11:34;;;;;;;20.48;10.88;;;3.90;99.90;;;2.76;100.00;95989.97;4915566;29;20790;-76
2023/03/08 00:14:02;;;;;;;18.65;10.75;;;3.90;99.90;;;2.82;100.00;95994.25;4915643;29;20432;-76
2023/03/08 00:16:28;;;;;;;20.63;11.23;;;3.90;99.90;;;2.81;100.00;95995.28;4915720;29;20487;-76
2023/03/08 00:18:54;;;;;;;16.88;10.82;;;4.00;99.90;;;2.79;100.00;96000.72;4915771;29;20409;-76
2023/03/08 00:21:20;;;;;;;18.38;11.15;;;4.00;99.90;;;2.84;100.00;96000.84;4915434;29;20448;-76
2023/03/08 00:23:46;;;;;;;18.38;11.07;;;4.00;99.90;;;2.92;100.00;95995.22;4915260;29;20413;-76
2023/03/08 00:26:12;;;;;;;19.50;11.45;;;4.00;99.90;;;2.90;100.00;95996.47;4915420;29;20413;-76
2023/03/08 00:28:39;;;;;;;20.10;10.98;;;4.10;99.90;;;2.93;100.00;95996.78;4915652;29;20410;-76
2023/03/08 00:31:10;;;;;;;17.33;10.55;;;4.10;99.90;;;2.92;100.00;95999.66;4915348;29;20421;-77
2023/03/08 00:33:36;;;;;;;17.73;11.07;;;4.10;99.90;;;2.82;100.00;96004.69;4915144;29;20490;-76
2023/03/08 00:36:06;;;;;;;20.90;12.05;;;4.00;99.90;;;2.78;100.00;96011.44;4915394;29;20441;-76
2023/03/08 00:38:34;;;;;;;20.83;11.67;;;4.00;99.90;;;2.69;100.00;96030.09;4915333;29;20499;-76
2023/03/08 00:41:01;;;;;;;18.30;11.37;;;3.80;99.00;;;2.83;100.00;96025.38;4915300;29;20413;-76
2023/03/08 00:43:27;;;;;;;19.77;12.10;;;4.00;99.90;;;2.86;100.00;96016.25;4915204;29;20464;-76
2023/03/08 00:45:53;;;;;;;24.08;12.68;;;4.00;99.90;;;2.81;100.00;96019.59;4915486;29;20626;-77
2023/03/08 00:48:21;;;;;;;21.40;12.25;;;4.00;99.90;;;2.90;100.00;96012.16;4915317;29;20884;-76
2023/03/08 00:50:47;;;;;;;20.88;11.45;;;4.00;99.90;;;2.81;100.00;96016.97;4915287;29;20433;-77
2023/03/08 00:53:13;;;;;;;21.17;12.60;;;4.00;99.90;;;2.68;100.00;96007.63;4913597;29;20429;-77
2023/03/08 00:55:39;;;;;;;24.25;11.90;;;3.90;99.90;;;2.78;100.00;96001.78;4915091;29;20776;-76
2023/03/08 00:58:05;;;;;;;19.67;12.17;;;3.90;99.90;;;2.65;100.00;95992.41;4914870;29;20475;-76
2023/03/08 01:00:31;;;;;;;20.30;12.50;;;3.80;98.40;;;2.66;100.00;95970.47;4914772;29;20897;-76
2023/03/08 01:02:57;;;;;;;21.35;12.20;;;3.80;99.90;;;2.63;100.00;95973.53;4914501;29;20485;-76
2023/03/08 01:05:24;;;;;;;23.60;12.70;;;3.80;99.90;;;2.56;100.00;95964.28;4914776;29;20448;-76
2023/03/08 01:07:50;;;;;;;20.00;12.52;;;3.70;99.90;;;2.52;100.00;95974.41;4914954;29;20417;-76
2023/03/08 01:10:17;;;;;;;19.37;11.80;;;3.70;99.90;;;2.51;100.00;95967.59;4914999;29;20757;-76
2023/03/08 01:12:43;;;;;;;25.67;12.85;;;3.70;99.90;;;2.49;100.00;95969.66;4914504;29;20428;-76
2023/03/08 01:15:09;;;;;;;23.08;12.95;;;3.70;99.90;;;2.40;100.00;95965.84;4914830;29;20504;-76
2023/03/08 01:17:35;;;;;;;25.95;14.50;;;3.60;99.90;;;2.44;100.00;95966.94;4914796;29;20425;-76
2023/03/08 01:20:02;;;;;;;22.70;13.67;;;3.60;99.90;;;2.43;100.00;95962.75;4914762;29;20413;-76
2023/03/08 01:22:29;;;;;;;23.55;13.52;;;3.60;99.90;;;2.47;100.00;95952.66;4914342;29;20456;-76
2023/03/08 01:24:55;;;;;;;22.58;13.45;;;3.60;99.90;;;2.36;100.00;95948.25;4914672;29;20420;-76
2023/03/08 01:27:21;;;;;;;25.42;14.13;;;3.50;99.90;;;2.33;100.00;95945.06;4914669;29;20455;-76
2023/03/08 01:29:47;;;;;;;23.25;14.45;;;3.50;99.90;;;2.30;100.00;95931.72;4914626;29;20425;-77
2023/03/08 01:32:13;;;;;;;25.87;14.97;;;3.50;99.90;;;2.28;100.00;95933.75;4914351;29;20462;-76
2023/03/08 01:34:38;;;;;;;25.75;14.32;;;3.50;99.90;;;2.20;100.00;95926.31;4914273;29;21021;-76
2023/03/08 01:37:04;;;;;;;26.20;14.35;;;3.40;99.90;;;2.11;100.00;95922.47;4914454;29;20524;-76
2023/03/08 01:39:32;;;;;;;27.45;14.63;;;3.30;99.90;;;2.05;100.00;95919.00;4914377;29;20432;-76
2023/03/08 01:41:58;;;;;;;26.60;16.03;;;3.20;99.90;;;2.00;100.00;95911.06;4914207;29;20544;-77
2023/03/08 01:44:23;;;;;;;28.77;16.00;;;3.20;99.90;;;1.98;100.00;95909.72;4914275;29;20409;-76
2023/03/08 01:46:50;;;;;;;28.40;15.38;;;3.20;99.90;;;1.97;100.00;95901.09;4914302;29;20444;-76
2023/03/08 01:49:19;;;;;;;27.55;15.27;;;3.20;99.90;;;1.96;100.00;95899.50;4914233;29;20776;-76
2023/03/08 01:51:50;;;;;;;27.05;15.80;;;3.20;99.90;;;2.03;100.00;95892.31;4914062;29;20414;-76
2023/03/08 01:54:22;;;;;;;29.43;15.23;;;3.20;99.90;;;1.94;100.00;95891.94;4914110;29;20429;-76
2023/03/08 01:56:52;;;;;;;26.08;14.63;;;3.10;99.90;;;1.89;100.00;95886.59;4914344;29;20421;-76
2023/03/08 01:59:19;;;;;;;22.50;14.10;;;3.10;99.90;;;1.81;100.00;95889.56;4914312;29;20468;-76
2023/03/08 02:01:45;;;;;;;31.53;16.37;;;3.00;99.90;;;1.91;100.00;95887.16;4914146;29;20417;-76
2023/03/08 02:04:11;;;;;;;24.45;14.93;;;3.10;99.90;;;1.91;100.00;95881.94;4913399;29;20768;-76
2023/03/08 02:06:37;;;;;;;28.25;15.48;;;3.10;99.90;;;1.88;100.00;95890.22;4914186;29;20473;-77
2023/03/08 02:09:04;;;;;;;24.98;14.30;;;3.10;99.90;;;1.76;100.00;95886.09;4912958;29;20982;-77
2023/03/08 02:11:32;;;;;;;26.50;14.90;;;3.00;99.90;;;1.79;100.00;95886.44;4913769;29;20488;-76
2023/03/08 02:13:59;;;;;;;24.40;14.30;;;3.00;99.90;;;1.75;100.00;95890.50;4914042;29;20421;-77
2023/03/08 02:16:25;;;;;;;26.73;14.55;;;3.00;99.90;;;1.73;100.00;95887.34;4914105;29;20824;-76
2023/03/08 02:18:55;;;;;;;23.65;14.25;;;3.00;99.90;;;1.74;100.00;95888.91;4914108;29;20512;-77
2023/03/08 02:21:22;;;;;;;28.60;16.52;;;3.00;99.90;;;1.86;100.00;95875.84;4913999;29;20776;-77
2023/03/08 02:23:49;;;;;;;27.83;15.70;;;3.00;99.90;;;1.83;100.00;95877.09;4913780;29;20432;-77
2023/03/08 02:26:16;;;;;;;26.13;15.57;;;3.10;99.90;;;1.91;100.00;95873.31;4913883;29;20508;-77
2023/03/08 02:28:42;;;;;;;21.98;13.18;;;3.10;99.90;;;1.83;100.00;95858.84;4913845;29;20416;-77
2023/03/08 02:31:08;;;;;;;26.42;14.82;;;3.00;99.90;;;1.78;100.00;95857.97;4913699;29;20499;-76
2023/03/08 02:33:34;;;;;;;25.77;14.73;;;3.00;99.90;;;1.74;100.00;95856.81;4913406;29;20828;-77
2023/03/08 02:36:01;;;;;;;22.45;13.32;;;3.00;99.90;;;1.71;100.00;95863.31;4913909;29;20423;-76
2023/03/08 02:38:27;;;;;;;24.20;13.87;;;2.90;99.90;;;1.77;100.00;95864.19;4913807;29;20444;-77
2023/03/08 02:40:55;;;;;;;27.48;14.88;;;3.00;99.90;;;1.81;100.00;95857.47;4913859;29;20413;-77
2023/03/08 02:43:21;;;;;;;24.77;14.73;;;3.00;99.90;;;1.85;100.00;95853.41;4913757;29;20410;-77
2023/03/08 02:45:47;;;;;;;24.13;14.10;;;3.10;99.90;;;1.85;100.00;95848.19;4913870;29;20413;-76
2023/03/08 02:48:14;;;;;;;25.87;14.10;;;3.10;99.90;;;1.82;100.00;95846.03;4913925;29;20452;-77
2023/03/08 02:50:40;;;;;;;24.23;14.98;;;3.00;99.90;;;1.87;100.00;95843.53;4913915;29;20509;-76
2023/03/08 02:53:06;;;;;;;25.63;14.88;;;3.10;99.90;;;1.85;100.00;95843.75;4913504;29;20493;-76
2023/03/08 02:55:36;;;;;;;21.83;14.00;;;3.10;99.90;;;1.89;100.00;95841.44;4913823;29;20489;-76
2023/03/08 02:58:05;;;;;;;25.17;15.10;;;3.10;99.90;;;1.94;100.00;95842.34;4913784;29;20862;-76
2023/03/08 03:00:31;;;;;;;26.20;14.68;;;3.10;99.90;;;1.96;100.00;95842.09;4912247;29;20459;-76
2023/03/08 03:02:57;;;;;;;27.92;15.25;;;3.20;99.90;;;1.95;100.00;95830.09;4913149;29;20413;-76
2023/03/08 03:05:23;;;;;;;24.83;14.45;;;3.20;99.90;;;1.86;100.00;95827.06;4913597;29;20427;-76
2023/03/08 03:07:49;;;;;;;27.25;14.10;;;3.10;99.90;;;2.12;100.00;95825.69;4913569;29;20423;-76
2023/03/08 03:10:15;;;;;;;23.08;13.32;;;3.20;99.90;;;2.00;100.00;95811.13;4913538;29;20413;-76
2023/03/08 03:12:42;;;;;;;26.92;14.50;;;3.20;99.90;;;1.94;100.00;95816.25;4913104;29;20546;-79
2023/03/08 03:15:11;;;;;;;23.27;14.55;;;3.20;99.90;;;2.07;100.00;95796.09;4945191;23;20439;-75
2023/03/08 03:17:37;;;;;;;22.80;13.73;;;3.20;99.90;;;2.10;100.00;95780.78;4936074;29;20407;-74
2023/03/08 03:20:08;;;;;;;22.88;13.25;;;3.30;99.90;;;2.06;100.00;95778.84;4935978;29;20408;-74
2023/03/08 03:22:34;;;;;;;24.02;13.57;;;3.30;99.90;;;2.03;100.00;95774.91;4935724;29;21080;-74
2023/03/08 03:25:00;;;;;;;25.50;13.88;;;3.20;99.90;;;1.95;100.00;95776.06;4918885;29;20421;-74
2023/03/08 03:27:26;;;;;;;22.52;13.40;;;3.20;99.90;;;1.93;100.00;95775.53;4915598;29;20823;-74
2023/03/08 03:29:52;;;;;;;24.38;13.50;;;3.10;99.90;;;1.89;100.00;95769.19;4916824;29;20413;-74
2023/03/08 03:32:19;;;;;;;21.85;13.93;;;3.10;99.90;;;1.99;100.00;95771.19;4916460;29;20414;-74
2023/03/08 03:34:46;;;;;;;25.48;14.00;;;3.20;99.90;;;1.95;100.00;95773.47;4916536;29;20492;-75
2023/03/08 03:37:12;;;;;;;20.77;12.55;;;3.20;99.90;;;1.92;100.00;95779.19;4916637;29;20899;-75
2023/03/08 03:39:38;;;;;;;21.20;12.63;;;3.10;99.90;;;1.89;100.00;95766.59;4915413;29;20425;-74
2023/03/08 03:42:05;;;;;;;21.45;13.50;;;3.10;99.90;;;1.85;100.00;95760.28;4916331;29;20409;-74
2023/03/08 03:44:31;;;;;;;22.48;13.38;;;3.10;99.90;;;1.91;100.00;95761.94;4916388;29;21082;-74
2023/03/08 03:46:57;;;;;;;23.40;12.90;;;3.10;99.90;;;1.90;100.00;95760.34;4916425;29;20415;-74
2023/03/08 03:49:24;;;;;;;23.17;12.90;;;3.10;99.90;;;1.84;100.00;95753.47;4916476;29;20486;-74
2023/03/08 03:51:50;;;;;;;21.20;13.68;;;3.10;99.90;;;1.84;100.00;95747.47;4916028;29;20812;-74
2023/03/08 03:54:16;;;;;;;23.73;13.73;;;3.00;99.90;;;1.80;100.00;95749.75;4916200;29;20520;-74
2023/03/08 03:56:42;;;;;;;23.05;13.52;;;3.00;99.90;;;1.77;100.00;95754.66;4916349;29;20536;-74
2023/03/08 03:59:08;;;;;;;21.85;12.43;;;3.00;99.90;;;1.75;100.00;95765.31;4916269;29;20457;-75
2023/03/08 04:01:34;;;;;;;19.33;12.30;;;3.00;99.90;;;1.79;100.00;95763.81;4915921;29;20891;-74
2023/03/08 04:04:00;;;;;;;21.88;13.55;;;3.00;99.90;;;1.77;100.00;95758.03;4916068;29;20529;-74
2023/03/08 04:06:29;;;;;;;23.40;13.35;;;3.00;99.90;;;1.84;100.00;95758.69;4916311;29;21081;-74
2023/03/08 04:08:58;;;;;;;22.40;12.73;;;3.00;99.90;;;1.81;100.00;95756.53;4916096;29;20421;-74
2023/03/08 04:11:27;;;;;;;23.50;12.63;;;3.00;99.90;;;1.81;100.00;95745.31;4915929;29;20492;-74
2023/03/08 04:13:53;;;;;;;25.10;13.57;;;3.00;99.90;;;1.76;100.00;95748.63;4915803;29;20465;-74
2023/03/08 04:16:21;;;;;;;20.40;12.40;;;3.00;99.90;;;1.77;100.00;95741.59;4916042;29;20813;-74
2023/03/08 04:18:51;;;;;;;20.08;12.43;;;3.00;99.90;;;1.81;100.00;95727.06;4915923;29;20496;-74
2023/03/08 04:21:17;;;;;;;22.25;13.32;;;3.00;99.90;;;1.80;100.00;95725.50;4915778;29;20449;-74
2023/03/08 04:23:44;;;;;;;22.85;13.30;;;3.00;99.90;;;1.78;100.00;95723.13;4915637;29;20437;-74
2023/03/08 04:26:12;;;;;;;22.67;13.18;;;3.00;99.90;;;1.79;100.00;95732.53;4915370;29;20749;-74
2023/03/08 04:28:38;;;;;;;23.02;13.40;;;3.00;99.90;;;1.79;100.00;95727.31;4915500;29;20409;-74
2023/03/08 04:31:12;;;;;;;31.58;14.88;;;3.00;99.90;;;1.89;100.00;95732.66;4915515;29;20452;-74
2023/03/08 04:33:38;;;;;;;21.93;13.23;;;3.10;99.90;;;1.83;100.00;95738.03;4915272;29;20437;-74
2023/03/08 04:36:05;;;;;;;23.70;13.88;;;3.00;99.90;;;1.81;100.00;95743.50;4915621;29;20467;-74
2023/03/08 04:38:35;;;;;;;23.52;13.13;;;3.00;99.90;;;1.86;100.00;95737.59;4915709;29;20420;-75
2023/03/08 04:41:11;;;;;;;24.35;13.55;;;3.10;99.90;;;1.84;100.00;95719.56;4915549;29;20413;-74
2023/03/08 04:43:38;;;;;;;22.98;13.27;;;3.00;99.90;;;1.83;100.00;95706.75;4915073;29;20421;-74
2023/03/08 04:46:05;;;;;;;23.77;13.75;;;3.00;99.90;;;1.88;100.00;95705.00;4915355;29;20858;-74
2023/03/08 04:48:32;;;;;;;22.30;13.30;;;3.10;99.90;;;1.92;100.00;95705.31;4915389;29;20418;-75
2023/03/08 04:51:01;;;;;;;24.45;14.48;;;3.10;99.90;;;1.97;100.00;95694.16;4915318;29;20820;-74
2023/03/08 04:53:28;;;;;;;22.55;14.00;;;3.20;99.90;;;2.01;100.00;95690.06;4914552;29;20512;-74
2023/03/08 04:55:55;;;;;;;23.00;13.98;;;3.20;99.90;;;2.05;100.00;95688.53;4914875;29;20428;-74
2023/03/08 04:58:22;;;;;;;24.92;13.93;;;3.20;99.90;;;2.00;100.00;95675.44;4915068;29;20954;-74
2023/03/08 05:00:48;;;;;;;26.13;14.63;;;3.20;99.90;;;1.95;100.00;95670.94;4915019;29;20421;-74
2023/03/08 05:03:14;;;;;;;21.58;13.55;;;3.10;99.90;;;2.07;100.00;95663.00;4914710;29;20414;-74
2023/03/08 05:05:45;;;;;;;24.73;14.70;;;3.20;99.90;;;2.06;100.00;95669.25;4915105;29;20417;-74
2023/03/08 05:08:11;;;;;;;24.63;14.38;;;3.20;99.90;;;2.04;100.00;95655.66;4915057;29;20414;-74
2023/03/08 05:10:37;;;;;;;23.60;14.95;;;3.20;99.90;;;2.03;100.00;95656.69;4914998;29;21031;-74
2023/03/08 05:13:03;;;;;;;23.40;13.93;;;3.20;99.90;;;2.09;100.00;95646.09;4914387;29;20429;-74
2023/03/08 05:15:31;;;;;;;23.83;14.10;;;3.30;99.90;;;2.17;100.00;95652.72;4914224;29;20417;-73
2023/03/08 05:17:56;;;;;;;22.65;13.52;;;3.30;99.90;;;2.13;100.00;95652.41;4913068;29;20883;-73
2023/03/08 05:20:22;;;;;;;23.60;13.75;;;3.30;99.90;;;2.12;100.00;95650.81;4913899;29;20425;-73
2023/03/08 05:22:50;;;;;;;24.40;14.37;;;3.30;99.90;;;2.17;100.00;95658.75;4914143;29;20417;-76
2023/03/08 05:25:16;;;;;;;20.85;14.23;;;3.30;99.90;;;2.23;100.00;95659.59;4913277;29;20460;-75
2023/03/08 05:27:41;;;;;;;27.80;14.93;;;3.40;99.90;;;2.24;100.00;95653.34;4913707;29;20417;-73
2023/03/08 05:30:09;;;;;;;26.00;14.15;;;3.40;99.90;;;2.31;100.00;95643.50;4913861;29;20440;-73
2023/03/08 05:32:36;;;;;;;22.25;14.35;;;3.40;99.90;;;2.26;100.00;95641.59;4914056;29;20779;-75
2023/03/08 05:35:03;;;;;;;24.55;15.35;;;3.40;99.90;;;2.32;100.00;95638.06;4914474;29;20798;-75
2023/03/08 05:37:29;;;;;;;27.58;15.10;;;3.40;99.90;;;2.28;100.00;95636.16;4914513;29;20413;-75
2023/03/08 05:39:55;;;;;;;25.45;14.45;;;3.50;99.90;;;2.27;100.00;95635.34;4912607;29;20521;-75
2023/03/08 05:42:21;;;;;;;24.98;14.57;;;3.40;99.90;;;2.27;100.00;95624.91;4914281;29;20409;-75
2023/03/08 05:44:47;;;;;;;27.70;15.35;;;3.40;99.90;;;2.25;100.00;95621.78;4914369;29;20512;-75
2023/03/08 05:47:12;;;;;;;25.92;14.68;;;3.40;99.90;;;2.32;100.00;95624.22;4914681;29;20413;-75
2023/03/08 05:49:40;;;;;;;27.52;15.02;;;3.50;99.90;;;2.39;100.00;95626.63;4914366;29;20409;-76
2023/03/08 05:52:06;;;;;;;23.80;14.23;;;3.50;99.90;;;2.37;100.00;95619.03;4914085;29;20936;-75
2023/03/08 05:54:32;;;;;;;27.92;15.68;;;3.60;99.90;;;2.32;100.00;95619.78;4914360;29;20441;-75
2023/03/08 05:56:58;;;;;;;23.75;13.68;;;3.50;99.90;;;2.33;100.00;95628.41;4914335;29;20471;-73
2023/03/08 05:59:25;;;;;;;23.60;14.27;;;3.50;99.90;;;2.31;100.00;95622.63;4914318;29;20559;-74
2023/03/08 06:01:51;;;;;;;28.38;14.77;;;3.50;99.90;;;2.38;100.00;95625.06;4913501;29;20429;-74
2023/03/08 06:04:17;;;;;;;24.50;15.50;;;3.50;99.90;;;2.53;100.00;95626.03;4913270;29;20429;-74
2023/03/08 06:06:44;;;;;;;26.73;15.07;;;3.60;99.90;;;2.43;100.00;95631.13;4913551;29;20426;-75
2023/03/08 06:09:10;;;;;;;25.73;15.32;;;3.60;99.90;;;2.46;100.00;95625.44;4913939;29;20500;-75
2023/03/08 06:11:36;;;;;;;26.70;15.40;;;3.60;99.90;;;2.44;100.00;95627.50;4913179;29;20500;-75
2023/03/08 06:14:02;;;;;;;26.90;16.35;;;3.60;99.90;;;2.44;100.00;95627.50;4913580;29;20421;-74
2023/03/08 06:16:28;;;;;;;22.50;14.53;;;3.60;99.90;;;2.49;100.00;95621.53;4914202;29;21019;-74
2023/03/08 06:18:54;;;;;;;25.58;15.55;;;3.60;99.90;;;2.55;100.00;95620.56;4914135;29;20423;-77
2023/03/08 06:21:21;;;;;;;25.98;16.00;;;3.70;99.90;;;2.54;100.00;95619.78;4914128;29;20409;-76
2023/03/08 06:23:49;;;;;;;29.08;16.60;;;3.70;99.90;;;2.54;100.00;95604.13;4928617;28;20424;-74
2023/03/08 06:26:15;;;;;;;26.75;17.08;;;3.70;99.90;;;2.54;100.00;95595.50;4913991;29;20797;-74
2023/03/08 06:28:42;;;;;;;24.63;15.85;;;3.70;99.90;;;2.55;100.00;95599.69;4914059;29;20413;-74
2023/03/08 06:31:10;;;;;;;26.73;16.85;;;3.70;99.90;;;2.59;100.00;95590.31;4913973;29;20911;-73
2023/03/08 06:33:36;;;;;;;28.45;17.50;;;3.70;99.90;;;2.51;100.00;95590.75;4912770;29;20887;-74
2023/03/08 06:36:06;;;;;;;31.02;17.80;;;3.70;99.90;;;2.51;100.00;95586.31;4912788;29;20405;-73
2023/03/08 06:38:34;;;;;;;26.83;17.15;;;3.70;99.90;;;2.53;100.00;95573.81;4916310;29;20492;-74
2023/03/08 06:41:02;;;;;;;30.67;17.55;;;3.70;99.90;;;2.53;100.00;95578.22;4916377;29;20529;-75
2023/03/08 06:43:28;;;;;;;31.63;17.93;;;3.70;99.90;;;2.59;100.00;95577.25;4910807;29;20488;-76
2023/03/08 06:45:55;;;;;;;34.03;18.93;;;3.70;99.90;;;2.58;100.00;95580.91;4931240;29;20439;-76
2023/03/08 06:48:27;;;;;;;27.50;16.52;;;3.80;99.90;;;2.59;100.00;95577.25;4931411;29;20413;-76
2023/03/08 06:50:52;;;;;;;26.35;16.02;;;3.70;99.90;;;2.61;100.00;95573.38;4934696;29;20408;-75
2023/03/08 06:53:18;;;;;;;26.23;17.15;;;3.80;99.90;;;2.64;100.00;95562.41;4928455;29;20946;-74
2023/03/08 06:55:44;;;;;;;24.48;16.25;;;3.80;99.90;;;2.71;100.00;95576.06;4921776;29;20413;-74
2023/03/08 06:58:12;;;;;;;25.42;15.60;;;3.80;99.90;;;2.79;100.00;95564.41;4920004;29;20447;-74
2023/03/08 07:00:38;;;;;;;28.13;17.63;;;3.90;99.90;;;2.80;100.00;95565.97;4926175;29;20409;-74
2023/03/08 07:03:04;;;;;;;28.70;17.37;;;3.90;99.90;;;2.86;100.00;95559.75;4916251;29;20405;-75
2023/03/08 07:05:31;;;;;;;24.23;16.35;;;4.00;99.90;;;2.89;100.00;95556.66;4916303;29;20414;-75
2023/03/08 07:07:57;;;;;;;34.20;19.25;;;4.00;99.90;;;2.89;100.00;95566.31;4918436;29;20420;-73
2023/03/08 07:10:23;;;;;;;31.60;18.63;;;4.00;99.90;;;2.89;100.00;95559.28;4917790;29;20425;-73
2023/03/08 07:12:50;;;;;;;27.75;17.50;;;4.00;99.90;;;2.92;100.00;95545.72;4924342;29;20424;-74
2023/03/08 07:15:20;;;;;;;28.45;17.63;;;4.00;99.90;;;2.96;100.00;95544.19;4921733;29;20486;-75
2023/03/08 07:17:47;;;;;;;33.20;17.83;;;4.10;99.90;;;2.96;100.00;95538.97;4923697;29;20432;-75
2023/03/08 07:20:16;;;;;;;35.00;19.00;;;4.10;99.90;;;2.97;100.00;95543.16;4924396;29;20409;-76
2023/03/08 07:22:43;;;;;;;27.73;17.52;;;4.10;99.90;;;3.01;100.00;95539.00;4918658;29;20444;-75
2023/03/08 07:25:10;;;;;;;27.70;17.23;;;4.20;99.90;;;3.03;100.00;95523.84;4917765;29;20483;-75
2023/03/08 07:27:36;;;;;;;32.17;19.50;;;4.20;99.90;;;3.06;100.00;95531.22;4920475;29;20414;-75
2023/03/08 07:30:03;;;;;;;27.88;17.90;;;4.20;99.90;;;3.10;100.00;95523.66;4916363;29;20405;-75
2023/03/08 07:32:30;;;;;;;28.52;17.67;;;4.20;99.90;;;3.19;100.00;95523.97;4915854;29;20413;-75
2023/03/08 07:34:56;;;;;;;31.27;18.63;;;4.30;99.90;;;3.08;100.00;95517.91;4915943;29;20448;-75
2023/03/08 07:37:23;;;;;;;29.93;18.20;;;4.20;99.90;;;3.21;100.00;95517.47;4916145;29;20454;-75
2023/03/08 07:39:50;;;;;;;33.43;16.40;;;4.30;99.90;;;3.14;100.00;95516.09;4915957;29;20505;-75
2023/03/08 07:42:16;;;;;;;28.67;16.42;;;4.30;99.90;;;3.20;100.00;95504.66;4915626;29;20493;-75
2023/03/08 07:44:42;;;;;;;27.63;16.80;;;4.30;99.90;;;3.21;100.00;95493.94;4915686;29;20496;-75
2023/03/08 07:47:08;;;;;;;29.20;17.47;;;4.30;99.90;;;3.20;100.00;95496.81;4914985;29;20539;-75
2023/03/08 07:49:35;;;;;;;31.88;18.08;;;4.30;99.90;;;3.24;100.00;95492.63;4915472;29;20568;-75
2023/03/08 07:52:01;;;;;;;30.27;17.15;;;4.40;99.90;;;3.20;100.00;95491.56;4913255;29;20464;-75
2023/03/08 07:54:27;;;;;;;27.27;16.20;;;4.30;99.90;;;3.18;100.00;95493.66;4914822;29;22222;-75
2023/03/08 07:56:54;;;;;;;30.92;16.90;;;4.30;99.90;;;3.30;100.00;95486.44;4915111;29;20444;-75
2023/03/08 07:59:21;;;;;;;27.93;17.63;;;4.40;99.90;;;3.28;100.00;95480.66;4913780;29;20429;-75
2023/03/08 08:01:46;;;;;;;25.55;16.30;;;4.40;99.90;;;3.28;100.00;95476.22;4907363;29;20436;-75
2023/03/08 08:04:13;;;;;;;24.63;16.38;;;4.40;99.90;;;3.35;100.00;95468.16;4909770;29;20484;-75
2023/03/08 08:06:40;;;;;;;26.15;16.15;;;4.50;99.90;;;3.43;100.00;95459.84;4914015;29;20478;-75
2023/03/08 08:09:07;;;;;;;26.35;16.10;;;4.50;99.90;;;3.45;100.00;95448.09;4914487;29;20417;-76
2023/03/08 08:11:33;;;;;;;24.40;15.10;;;4.60;99.90;;;3.56;100.00;95446.28;4910457;29;20410;-77
2023/03/08 08:13:59;;;;;;;24.85;15.00;;;4.60;99.90;;;3.62;100.00;95440.03;4911366;29;20434;-76
2023/03/08 08:16:25;;;;;;;20.85;13.52;;;4.70;99.90;;;3.59;100.00;95445.00;4914985;29;20772;-75
2023/03/08 08:18:53;;;;;;;23.83;14.23;;;4.70;99.90;;;3.58;100.00;95432.97;4917702;29;20475;-75
2023/03/08 08:21:19;;;;;;;20.05;12.65;;;4.70;99.90;;;3.62;100.00;95434.03;4911150;29;20472;-74
2023/03/08 08:23:47;;;;;;;21.20;13.80;;;4.70;99.90;;;3.61;100.00;95429.84;4913753;29;20475;-75
2023/03/08 08:26:16;;;;;;;21.25;13.80;;;4.70;99.90;;;3.60;100.00;95421.22;4915424;29;20443;-75
2023/03/08 08:28:44;;;;;;;19.95;12.90;;;4.70;99.90;;;3.61;100.00;95401.06;4915607;29;20420;-77
2023/03/08 08:31:14;;;;;;;27.42;14.52;;;4.70;99.90;;;3.59;100.00;95390.88;4914311;29;20590;-76
2023/03/08 08:33:40;;;;;;;23.10;14.68;;;4.70;99.90;;;3.61;100.00;95390.63;4913745;29;20550;-75
2023/03/08 08:36:09;;;;;;;22.60;13.23;;;4.70;99.90;;;3.70;100.00;95386.44;4914318;29;20516;-76
2023/03/08 08:38:35;;;;;;;27.77;15.77;;;4.80;99.90;;;3.68;100.00;95383.31;4919221;29;20546;-74
2023/03/08 08:41:05;;;;;;;21.83;14.38;;;4.80;99.90;;;3.74;100.00;95377.84;4918069;29;20481;-75
2023/03/08 08:43:33;;;;;;;25.30;14.87;;;4.80;99.90;;;3.76;100.00;95375.72;4914731;29;20453;-77
2023/03/08 08:46:00;;;;;;;23.30;14.43;;;4.90;99.90;;;3.81;100.00;95365.31;4915683;29;20535;-80
2023/03/08 08:48:27;;;;;;;22.87;14.33;;;4.90;99.90;;;3.76;100.00;95373.13;4914901;29;20421;-83
2023/03/08 08:50:54;;;;;;;24.10;15.30;;;4.80;99.90;;;3.78;100.00;95362.41;4914499;29;20556;-78
2023/03/08 08:53:20;;;;;;;26.17;16.27;;;4.90;99.90;;;3.78;100.00;95360.56;4914687;29;21615;-81
2023/03/08 08:55:46;;;;;;;19.83;12.60;;;4.90;99.90;;;3.86;100.00;95367.91;4915519;29;20432;-76
2023/03/08 08:58:14;;;;;;;22.85;14.13;;;4.90;99.90;;;3.89;100.00;95366.63;4914136;29;20433;-76
2023/03/08 09:00:40;;;;;;;21.20;13.48;;;5.00;99.90;;;3.97;100.00;95345.19;4919326;29;20466;-78
2023/03/08 09:03:06;;;;;;;19.88;13.52;;;5.00;99.90;;;3.99;100.00;95368.47;4909889;29;20499;-77
2023/03/08 09:05:36;;;;;;;19.77;13.18;;;5.10;99.90;;;4.05;100.00;95352.53;4919270;29;20469;-76
2023/03/08 09:08:02;;;;;;;21.13;13.43;;;5.10;99.90;;;4.09;100.00;95345.72;4928888;29;20446;-76
2023/03/08 09:10:32;;;;;;;27.15;15.48;;;5.20;99.90;;;4.12;100.00;95354.91;4933417;29;20415;-76
2023/03/08 09:12:59;;;;;;;25.15;14.55;;;5.20;99.90;;;4.07;100.00;95355.66;4933036;29;20765;-76
2023/03/08 09:15:26;;;;;;;24.10;14.80;;;5.10;99.90;;;4.10;100.00;95351.75;4933497;29;20504;-76
2023/03/08 09:17:52;;;;;;;21.35;13.35;;;5.20;99.90;;;4.15;100.00;95349.91;4916856;29;20439;-75
2023/03/08 09:20:19;;;;;;;23.80;14.40;;;5.20;99.90;;;4.15;100.00;95341.28;4915851;29;20442;-75
2023/03/08 09:22:45;;;;;;;26.25;14.90;;;5.20;99.90;;;4.13;100.00;95338.16;4917821;29;20416;-76
2023/03/08 09:25:11;;;;;;;21.63;12.87;;;5.20;99.90;;;4.19;100.00;95324.00;4924518;29;20434;-76
2023/03/08 09:27:39;;;;;;;23.05;13.98;;;5.30;99.90;;;4.23;100.00;95325.03;4912145;29;20421;-76
2023/03/08 09:30:09;;;;;;;22.30;13.23;;;5.30;99.90;;;4.30;100.00;95312.47;4918476;29;20436;-77
2023/03/08 09:32:36;;;;;;;18.33;11.68;;;5.40;99.90;;;4.37;100.00;95320.06;4916500;28;20513;-77
2023/03/08 09:35:04;;;;;;;25.70;15.70;;;5.40;99.90;;;4.27;100.00;95320.88;4919729;29;20516;-78
2023/03/08 09:37:30;;;;;;;24.60;13.85;;;5.30;99.90;;;4.33;100.00;95290.22;4921439;29;20460;-80
2023/03/08 09:39:55;;;;;;;20.17;12.68;;;5.40;99.90;;;4.38;100.00;95304.09;4928668;29;20428;-75
2023/03/08 09:42:26;;;;;;;25.92;14.57;;;5.40;99.90;;;4.35;100.00;95286.31;4916316;29;20436;-79
2023/03/08 09:45:22;;;;;;;20.90;13.23;;;5.40;99.90;;;4.45;100.00;95291.53;4917048;29;20429;-76
2023/03/08 09:47:58;;;;;;;20.45;11.93;;;5.50;99.90;;;4.57;100.00;95289.44;4910344;29;20935;-76
2023/03/08 09:50:38;;;;;;;22.35;12.45;;;5.60;99.90;;;4.65;100.00;95277.63;4913078;29;20749;-76
2023/03/08 09:53:16;;;;;;;22.17;13.30;;;5.70;99.90;;;4.74;100.00;95283.09;4908366;29;21039;-76
2023/03/08 09:55:48;;;;;;;21.65;12.80;;;5.80;99.90;;;4.86;100.00;95273.13;4913323;29;20516;-76
2023/03/08 09:58:35;;;;;;;21.42;12.60;;;5.90;99.90;;;5.08;100.00;95260.47;4912559;29;20490;-76
2023/03/08 10:01:17;;;;;;;22.42;13.10;;;6.00;99.90;;;5.18;100.00;95255.19;4910599;29;20432;-75
2023/03/08 10:04:12;;;;;;;20.15;11.25;;;6.20;99.90;;;5.29;100.00;95248.03;4908308;29;20429;-74
2023/03/08 10:06:46;;;;;;;17.73;11.00;;;6.30;99.90;;;5.52;100.00;95257.13;4910011;29;20856;-77
2023/03/08 10:09:30;;;;;;;16.80;9.40;;;6.40;99.90;;;5.60;100.00;95241.59;4931505;29;20468;-78
2023/03/08 10:12:12;;;;;;;14.73;9.30;;;6.60;99.90;;;5.78;100.00;95256.72;4921653;29;20503;-79
2023/03/08 10:14:45;;;;;;;15.95;9.50;;;6.80;99.90;;;6.35;100.00;95244.75;4916111;29;20519;-76